createdAt,value
2022-09-21T00:11:42.886Z,82.78
2022-09-21T00:26:44.778Z,83.06
2022-09-21T00:41:46.176Z,83.68
2022-09-21T00:56:46.255Z,82.03
2022-09-21T01:11:47.660Z,83.78
2022-09-21T01:26:47.880Z,82.19
2022-09-21T01:41:49.653Z,81.85
2022-09-21T01:56:49.841Z,81.44
2022-09-21T02:11:51.233Z,81.68
2022-09-21T02:26:51.320Z,82.24
2022-09-21T02:41:53.209Z,81.58
2022-09-21T02:56:53.399Z,82.14
2022-09-21T03:11:53.560Z,82.76
2022-09-21T03:26:54.818Z,81.93
2022-09-21T03:41:57.006Z,81.56
2022-09-21T03:56:58.515Z,81.66
2022-09-21T04:11:59.287Z,81.70
2022-09-21T04:27:00.368Z,82.21
2022-09-21T04:42:02.675Z,81.59
2022-09-21T04:57:04.233Z,85.19
2022-09-21T05:12:05.640Z,85.00
2022-09-21T05:27:05.741Z,83.07
2022-09-21T05:42:07.132Z,82.24
2022-09-21T05:57:07.819Z,85.75
2022-09-21T06:12:10.112Z,90.56
2022-09-21T06:27:11.317Z,91.17
2022-09-21T06:42:13.629Z,89.56
2022-09-21T06:57:13.716Z,86.80
2022-09-21T07:12:15.294Z,82.92
2022-09-21T07:27:16.283Z,73.47
2022-09-21T07:42:16.675Z,72.41
2022-09-21T07:57:16.978Z,71.97
2022-09-21T08:12:19.031Z,81.99
2022-09-21T08:27:20.071Z,99.99
2022-09-21T08:42:20.201Z,99.99
2022-09-21T08:57:20.864Z,98.91
2022-09-21T09:12:22.045Z,94.93
2022-09-21T09:27:22.143Z,90.78
2022-09-21T09:42:23.401Z,85.88
2022-09-21T09:57:24.831Z,80.91
2022-09-21T10:12:26.276Z,81.39
2022-09-21T10:27:27.538Z,77.97
2022-09-21T10:43:04.606Z,82.38
2022-09-21T10:58:08.140Z,74.11
2022-09-21T11:13:08.228Z,77.00
2022-09-21T11:28:07.983Z,83.14
2022-09-21T11:43:10.004Z,77.14
2022-09-21T11:58:11.023Z,76.56
2022-09-21T12:13:13.379Z,68.55
2022-09-21T12:28:15.779Z,73.68
2022-09-21T12:43:18.003Z,69.52
2022-09-21T12:58:55.498Z,70.23
2022-09-21T13:13:57.757Z,66.58
2022-09-21T13:28:59.100Z,73.65
2022-09-21T13:44:02.646Z,80.26
2022-09-21T14:06:08.931Z,67.22
2022-09-21T14:21:09.916Z,66.99
2022-09-21T14:36:11.329Z,62.24
2022-09-21T14:51:12.796Z,63.96
2022-09-21T15:06:14.649Z,66.41
2022-09-21T15:21:16.558Z,67.77
2022-09-21T15:36:16.689Z,69.21
2022-09-21T15:51:16.838Z,71.84
2022-09-21T16:06:17.446Z,74.47
2022-09-21T16:21:17.526Z,76.67
2022-09-21T16:49:57.353Z,83.06
2022-09-21T17:04:58.692Z,86.07
2022-09-21T17:20:00.135Z,92.13
2022-09-21T17:35:01.447Z,98.02
2022-09-21T17:50:03.413Z,99.99
2022-09-21T18:05:04.380Z,99.99
2022-09-21T18:20:05.293Z,99.99
2022-09-21T18:35:06.626Z,99.99
2022-09-21T18:50:07.381Z,99.99
2022-09-21T19:05:08.802Z,99.99
2022-09-21T19:20:10.349Z,99.99
2022-09-21T19:35:11.699Z,99.99
2022-09-21T19:50:15.000Z,98.52
2022-09-21T20:05:16.358Z,97.58
2022-09-21T20:20:16.473Z,96.70
2022-09-21T20:35:18.512Z,95.65
2022-09-21T20:50:18.488Z,92.60
2022-09-21T21:05:20.342Z,93.53
2022-09-21T21:20:22.228Z,92.29
2022-09-21T21:35:31.647Z,89.86
2022-09-21T21:50:33.015Z,85.62
2022-09-21T22:05:34.361Z,82.79
2022-09-21T22:20:36.218Z,81.76
2022-09-21T22:35:37.591Z,80.04
2022-09-21T22:50:38.594Z,82.45
2022-09-21T23:05:39.061Z,85.78
2022-09-21T23:20:40.704Z,87.95
2022-09-21T23:35:41.390Z,90.62
2022-09-21T23:50:43.830Z,89.56
